EZY1015 LFBO-EBBR
Flight info
| Callsign | EZY1015 |
|---|---|
| Flight time | 1h 17m |
| Altitude | 34000 |
| Route | FISTO DCT PERIG DCT ADABI DCT BOKNO UN858 VANAD UN874 BAMES UT191 PODEM UN873 BAZOS DCT BELDI DCT VEKIN Z173 ARVOL |
| Aircraft | A320/M-SDE3FGHIRWY/LB1 |
Departure
| Time | 2026-05-06 10:46 |
|---|---|
| Airport | Toulouse-Blagnac Airport (LFBO) |
Arrival
| Time | 2026-05-06 12:03 |
|---|---|
| Airport | Brussels Airport (EBBR) |
| Time | Latitude | Longitude | Altitude | Speed | Heading |
|---|---|---|---|---|---|
| 2026-05-06 10:27 | 43.62982 | 1.37276 | 495 ft | 0 kts | 81° |
| 2026-05-06 10:40 | 43.62982 | 1.37277 | 494 ft | 1 kts | 81° |
| 2026-05-06 10:40 | 43.62974 | 1.37283 | 494 ft | 2 kts | 166° |
| 2026-05-06 10:40 | 43.62936 | 1.37254 | 491 ft | 11 kts | 229° |
| 2026-05-06 10:40 | 43.62886 | 1.37164 | 488 ft | 12 kts | 233° |
| 2026-05-06 10:41 | 43.62832 | 1.37071 | 486 ft | 12 kts | 219° |
| 2026-05-06 10:41 | 43.62757 | 1.37092 | 490 ft | 11 kts | 143° |
| 2026-05-06 10:41 | 43.62698 | 1.37153 | 489 ft | 10 kts | 143° |
| 2026-05-06 10:41 | 43.62631 | 1.37224 | 485 ft | 15 kts | 142° |
| 2026-05-06 10:42 | 43.62549 | 1.37309 | 492 ft | 15 kts | 143° |
| 2026-05-06 10:42 | 43.62467 | 1.37394 | 487 ft | 15 kts | 143° |
| 2026-05-06 10:42 | 43.62384 | 1.37480 | 487 ft | 15 kts | 143° |
| 2026-05-06 10:42 | 43.62302 | 1.37566 | 489 ft | 15 kts | 143° |
| 2026-05-06 10:43 | 43.62220 | 1.37650 | 494 ft | 15 kts | 143° |
| 2026-05-06 10:43 | 43.62139 | 1.37734 | 487 ft | 15 kts | 143° |
| 2026-05-06 10:43 | 43.62059 | 1.37817 | 494 ft | 14 kts | 143° |
| 2026-05-06 10:44 | 43.61905 | 1.37976 | 498 ft | 13 kts | 143° |
| 2026-05-06 10:44 | 43.61837 | 1.38048 | 494 ft | 12 kts | 143° |
| 2026-05-06 10:44 | 43.61776 | 1.38111 | 493 ft | 11 kts | 143° |
| 2026-05-06 10:44 | 43.61690 | 1.38176 | 494 ft | 15 kts | 179° |
| 2026-05-06 10:45 | 43.61609 | 1.38083 | 493 ft | 13 kts | 233° |
| 2026-05-06 10:45 | 43.61595 | 1.37997 | 490 ft | 9 kts | 300° |
| 2026-05-06 10:45 | 43.61650 | 1.37934 | 491 ft | 18 kts | 323° |
| 2026-05-06 10:45 | 43.61953 | 1.37617 | 487 ft | 90 kts | 323° |
| 2026-05-06 10:46 | 43.62618 | 1.36924 | 487 ft | 146 kts | 323° |
| 2026-05-06 10:46 | 43.63492 | 1.36026 | 945 ft | 157 kts | 323° |
| 2026-05-06 10:46 | 43.64362 | 1.35113 | 1666 ft | 158 kts | 320° |
| 2026-05-06 10:46 | 43.65256 | 1.34127 | 2143 ft | 174 kts | 319° |
| 2026-05-06 10:47 | 43.66257 | 1.33014 | 2464 ft | 196 kts | 320° |
| 2026-05-06 10:47 | 43.67384 | 1.31764 | 2780 ft | 220 kts | 320° |
| 2026-05-06 10:47 | 43.68645 | 1.30369 | 3208 ft | 245 kts | 320° |
| 2026-05-06 10:47 | 43.70023 | 1.28847 | 3845 ft | 259 kts | 320° |
| 2026-05-06 10:48 | 43.71459 | 1.27300 | 4750 ft | 264 kts | 325° |
| 2026-05-06 10:48 | 43.73176 | 1.26347 | 5641 ft | 270 kts | 345° |
| 2026-05-06 10:48 | 43.75020 | 1.25741 | 6562 ft | 274 kts | 345° |
| 2026-05-06 10:48 | 43.76887 | 1.25167 | 7458 ft | 276 kts | 349° |
| 2026-05-06 10:49 | 43.78827 | 1.25009 | 8276 ft | 283 kts | 357° |
| 2026-05-06 10:49 | 43.80810 | 1.24957 | 9122 ft | 287 kts | 357° |
| 2026-05-06 10:49 | 43.82816 | 1.24894 | 9952 ft | 290 kts | 357° |
| 2026-05-06 10:49 | 43.84891 | 1.24820 | 10431 ft | 309 kts | 357° |
| 2026-05-06 10:50 | 43.87125 | 1.24739 | 10669 ft | 333 kts | 357° |
| 2026-05-06 10:50 | 43.89515 | 1.24653 | 11007 ft | 351 kts | 357° |
| 2026-05-06 10:50 | 43.91986 | 1.24568 | 11643 ft | 358 kts | 357° |
| 2026-05-06 10:50 | 43.94488 | 1.24485 | 12351 ft | 361 kts | 357° |
| 2026-05-06 10:51 | 43.97013 | 1.24402 | 13050 ft | 365 kts | 357° |
| 2026-05-06 10:51 | 43.99559 | 1.24314 | 13753 ft | 368 kts | 357° |
| 2026-05-06 10:51 | 44.02132 | 1.24226 | 14442 ft | 371 kts | 357° |
| 2026-05-06 10:51 | 44.04725 | 1.24138 | 15113 ft | 374 kts | 357° |
| 2026-05-06 10:52 | 44.07336 | 1.24051 | 15759 ft | 377 kts | 357° |
| 2026-05-06 10:52 | 44.09966 | 1.23965 | 16385 ft | 379 kts | 357° |
| 2026-05-06 10:52 | 44.12579 | 1.23877 | 16957 ft | 382 kts | 357° |
| 2026-05-06 10:52 | 44.15249 | 1.23785 | 17548 ft | 385 kts | 357° |
| 2026-05-06 10:53 | 44.17940 | 1.23692 | 18113 ft | 388 kts | 357° |
| 2026-05-06 10:53 | 44.20644 | 1.23597 | 18659 ft | 390 kts | 357° |
| 2026-05-06 10:53 | 44.23376 | 1.23502 | 19197 ft | 394 kts | 357° |
| 2026-05-06 10:53 | 44.26122 | 1.23408 | 19719 ft | 396 kts | 357° |
| 2026-05-06 10:54 | 44.28887 | 1.23314 | 20221 ft | 399 kts | 357° |
| 2026-05-06 10:54 | 44.31680 | 1.23216 | 20710 ft | 402 kts | 357° |
| 2026-05-06 10:54 | 44.34487 | 1.23115 | 21198 ft | 405 kts | 357° |
| 2026-05-06 10:54 | 44.37313 | 1.23017 | 21659 ft | 407 kts | 357° |
| 2026-05-06 10:55 | 44.40154 | 1.22920 | 22101 ft | 410 kts | 357° |
| 2026-05-06 10:55 | 44.43015 | 1.22826 | 22540 ft | 413 kts | 357° |
| 2026-05-06 10:55 | 44.45887 | 1.22586 | 22957 ft | 415 kts | 351° |
| 2026-05-06 10:55 | 44.48713 | 1.21741 | 23356 ft | 416 kts | 343° |
| 2026-05-06 10:56 | 44.51508 | 1.20642 | 23760 ft | 419 kts | 343° |
| 2026-05-06 10:56 | 44.54322 | 1.19538 | 24151 ft | 421 kts | 343° |
| 2026-05-06 10:56 | 44.57155 | 1.18428 | 24521 ft | 424 kts | 343° |
| 2026-05-06 10:56 | 44.60006 | 1.17316 | 24875 ft | 427 kts | 343° |
| 2026-05-06 10:57 | 44.62876 | 1.16200 | 25230 ft | 429 kts | 343° |
| 2026-05-06 10:57 | 44.65760 | 1.15076 | 25573 ft | 432 kts | 343° |
| 2026-05-06 10:57 | 44.68665 | 1.13940 | 25913 ft | 435 kts | 343° |
| 2026-05-06 10:57 | 44.71584 | 1.12795 | 26246 ft | 437 kts | 343° |
| 2026-05-06 10:58 | 44.74521 | 1.11641 | 26569 ft | 439 kts | 343° |
| 2026-05-06 10:58 | 44.77470 | 1.10481 | 26884 ft | 442 kts | 343° |
| 2026-05-06 10:58 | 44.80398 | 1.09329 | 27187 ft | 444 kts | 343° |
| 2026-05-06 10:58 | 44.83383 | 1.08152 | 27484 ft | 446 kts | 343° |
| 2026-05-06 10:59 | 44.86384 | 1.06973 | 27767 ft | 448 kts | 343° |
| 2026-05-06 10:59 | 44.89395 | 1.05791 | 28053 ft | 450 kts | 343° |
| 2026-05-06 10:59 | 44.92422 | 1.04603 | 28326 ft | 452 kts | 343° |
| 2026-05-06 10:59 | 44.95458 | 1.03407 | 28595 ft | 455 kts | 343° |
| 2026-05-06 11:00 | 44.98511 | 1.02199 | 28861 ft | 457 kts | 343° |
| 2026-05-06 11:00 | 45.01574 | 1.00981 | 29146 ft | 458 kts | 343° |
| 2026-05-06 11:00 | 45.04638 | 0.99760 | 29519 ft | 457 kts | 343° |
| 2026-05-06 11:00 | 45.07693 | 0.98542 | 29886 ft | 456 kts | 343° |
| 2026-05-06 11:01 | 45.10741 | 0.97328 | 30244 ft | 455 kts | 343° |
| 2026-05-06 11:01 | 45.13802 | 0.96180 | 30586 ft | 455 kts | 346° |
| 2026-05-06 11:01 | 45.16884 | 0.95184 | 30916 ft | 455 kts | 347° |
| 2026-05-06 11:01 | 45.19986 | 0.94292 | 31235 ft | 455 kts | 348° |
| 2026-05-06 11:02 | 45.23096 | 0.93445 | 31554 ft | 455 kts | 348° |
| 2026-05-06 11:02 | 45.26206 | 0.92601 | 31869 ft | 455 kts | 348° |
| 2026-05-06 11:02 | 45.29308 | 0.91737 | 32181 ft | 454 kts | 348° |
| 2026-05-06 11:02 | 45.32403 | 0.90841 | 32494 ft | 454 kts | 347° |
| 2026-05-06 11:03 | 45.35495 | 0.89922 | 32791 ft | 454 kts | 347° |
| 2026-05-06 11:03 | 45.38588 | 0.88989 | 33082 ft | 454 kts | 347° |
| 2026-05-06 11:03 | 45.41676 | 0.88053 | 33372 ft | 454 kts | 347° |
| 2026-05-06 11:03 | 45.44766 | 0.87118 | 33667 ft | 454 kts | 347° |
| 2026-05-06 11:04 | 45.47856 | 0.86181 | 33877 ft | 454 kts | 347° |
| 2026-05-06 11:04 | 45.54061 | 0.84313 | 33925 ft | 456 kts | 347° |
| 2026-05-06 11:05 | 45.60232 | 0.82464 | 33924 ft | 456 kts | 347° |
| 2026-05-06 11:05 | 45.66448 | 0.80590 | 33925 ft | 456 kts | 347° |
| 2026-05-06 11:06 | 45.72651 | 0.78716 | 33924 ft | 456 kts | 347° |
| 2026-05-06 11:06 | 45.77812 | 0.77160 | 33925 ft | 456 kts | 347° |
| 2026-05-06 11:07 | 45.84010 | 0.75284 | 33924 ft | 456 kts | 347° |
| 2026-05-06 11:07 | 45.90213 | 0.73396 | 33924 ft | 455 kts | 347° |
| 2026-05-06 11:08 | 45.96407 | 0.71503 | 33923 ft | 455 kts | 347° |
| 2026-05-06 11:08 | 46.02599 | 0.69615 | 33924 ft | 455 kts | 348° |
| 2026-05-06 11:09 | 46.08786 | 0.67727 | 33925 ft | 454 kts | 348° |
| 2026-05-06 11:09 | 46.14965 | 0.65824 | 33927 ft | 454 kts | 348° |
| 2026-05-06 11:10 | 46.21140 | 0.63917 | 33926 ft | 454 kts | 348° |
| 2026-05-06 11:10 | 46.27274 | 0.62027 | 33926 ft | 454 kts | 348° |
| 2026-05-06 11:11 | 46.33445 | 0.60119 | 33925 ft | 453 kts | 348° |
| 2026-05-06 11:11 | 46.39615 | 0.58211 | 33922 ft | 453 kts | 348° |
| 2026-05-06 11:12 | 46.45780 | 0.56299 | 33922 ft | 453 kts | 348° |
| 2026-05-06 11:12 | 46.51950 | 0.54382 | 33920 ft | 453 kts | 349° |
| 2026-05-06 11:13 | 46.58219 | 0.53950 | 33923 ft | 453 kts | 7° |
| 2026-05-06 11:13 | 46.64386 | 0.55823 | 33921 ft | 453 kts | 13° |
| 2026-05-06 11:14 | 46.70532 | 0.57845 | 33918 ft | 452 kts | 12° |
| 2026-05-06 11:14 | 46.76672 | 0.59854 | 33916 ft | 452 kts | 13° |
| 2026-05-06 11:15 | 46.82812 | 0.61875 | 33918 ft | 452 kts | 13° |
| 2026-05-06 11:15 | 46.88906 | 0.63896 | 33919 ft | 452 kts | 13° |
| 2026-05-06 11:16 | 46.95035 | 0.65935 | 33918 ft | 451 kts | 13° |
| 2026-05-06 11:16 | 47.01165 | 0.67979 | 33921 ft | 452 kts | 13° |
| 2026-05-06 11:17 | 47.07355 | 0.69448 | 33924 ft | 451 kts | 4° |
| 2026-05-06 11:17 | 47.13626 | 0.70085 | 33928 ft | 452 kts | 4° |
| 2026-05-06 11:18 | 47.19907 | 0.70746 | 33931 ft | 452 kts | 4° |
| 2026-05-06 11:18 | 47.26177 | 0.71402 | 33939 ft | 452 kts | 4° |
| 2026-05-06 11:19 | 47.32443 | 0.72055 | 33937 ft | 451 kts | 4° |
| 2026-05-06 11:19 | 47.38702 | 0.72714 | 33936 ft | 451 kts | 4° |
| 2026-05-06 11:20 | 47.44957 | 0.73372 | 33936 ft | 450 kts | 4° |
| 2026-05-06 11:20 | 47.51105 | 0.74645 | 33933 ft | 450 kts | 16° |
| 2026-05-06 11:21 | 47.57085 | 0.77563 | 33934 ft | 449 kts | 19° |
| 2026-05-06 11:21 | 47.63020 | 0.80474 | 33934 ft | 449 kts | 18° |
| 2026-05-06 11:22 | 47.68913 | 0.83369 | 33928 ft | 449 kts | 19° |
| 2026-05-06 11:22 | 47.74848 | 0.86308 | 33930 ft | 449 kts | 19° |
| 2026-05-06 11:23 | 47.80775 | 0.89257 | 33928 ft | 449 kts | 19° |
| 2026-05-06 11:23 | 47.86701 | 0.92211 | 33927 ft | 449 kts | 19° |
| 2026-05-06 11:24 | 47.92619 | 0.95198 | 33926 ft | 449 kts | 19° |
| 2026-05-06 11:24 | 47.98536 | 0.98202 | 33922 ft | 449 kts | 19° |
| 2026-05-06 11:25 | 48.04451 | 1.01208 | 33919 ft | 449 kts | 19° |
| 2026-05-06 11:25 | 48.10360 | 1.04205 | 33922 ft | 448 kts | 19° |
| 2026-05-06 11:26 | 48.16270 | 1.07208 | 33921 ft | 448 kts | 19° |
| 2026-05-06 11:26 | 48.22173 | 1.10233 | 33921 ft | 448 kts | 19° |
| 2026-05-06 11:27 | 48.28073 | 1.13247 | 33917 ft | 448 kts | 19° |
| 2026-05-06 11:27 | 48.33980 | 1.16254 | 33915 ft | 448 kts | 19° |
| 2026-05-06 11:28 | 48.39854 | 1.19253 | 33914 ft | 448 kts | 19° |
| 2026-05-06 11:28 | 48.45760 | 1.22282 | 33915 ft | 449 kts | 19° |
| 2026-05-06 11:29 | 48.51662 | 1.25331 | 33915 ft | 448 kts | 19° |
| 2026-05-06 11:29 | 48.57569 | 1.28372 | 33916 ft | 448 kts | 19° |
| 2026-05-06 11:30 | 48.63492 | 1.31350 | 33916 ft | 449 kts | 18° |
| 2026-05-06 11:30 | 48.69421 | 1.34315 | 33920 ft | 449 kts | 18° |
| 2026-05-06 11:31 | 48.75341 | 1.37307 | 33922 ft | 449 kts | 19° |
| 2026-05-06 11:31 | 48.81263 | 1.40312 | 33924 ft | 449 kts | 19° |
| 2026-05-06 11:32 | 48.87177 | 1.43324 | 33922 ft | 448 kts | 19° |
| 2026-05-06 11:32 | 48.93088 | 1.46336 | 33924 ft | 448 kts | 19° |
| 2026-05-06 11:33 | 48.99068 | 1.48977 | 33925 ft | 448 kts | 9° |
| 2026-05-06 11:33 | 49.05245 | 1.50410 | 33928 ft | 449 kts | 8° |
| 2026-05-06 11:34 | 49.11420 | 1.51839 | 33930 ft | 449 kts | 9° |
| 2026-05-06 11:34 | 49.17550 | 1.53281 | 33931 ft | 448 kts | 9° |
| 2026-05-06 11:35 | 49.23646 | 1.55232 | 33926 ft | 448 kts | 20° |
| 2026-05-06 11:35 | 49.29086 | 1.59795 | 33922 ft | 447 kts | 38° |
| 2026-05-06 11:36 | 49.33652 | 1.66258 | 33918 ft | 447 kts | 44° |
| 2026-05-06 11:36 | 49.38157 | 1.72840 | 33915 ft | 447 kts | 43° |
| 2026-05-06 11:37 | 49.42657 | 1.79430 | 33912 ft | 448 kts | 44° |
| 2026-05-06 11:37 | 49.47159 | 1.86055 | 33913 ft | 448 kts | 44° |
| 2026-05-06 11:38 | 49.51655 | 1.92687 | 33913 ft | 448 kts | 44° |
| 2026-05-06 11:38 | 49.56148 | 1.99336 | 33912 ft | 448 kts | 44° |
| 2026-05-06 11:39 | 49.60634 | 2.05998 | 33910 ft | 448 kts | 44° |
| 2026-05-06 11:39 | 49.65120 | 2.12677 | 33910 ft | 448 kts | 44° |
| 2026-05-06 11:40 | 49.69605 | 2.19366 | 33911 ft | 448 kts | 44° |
| 2026-05-06 11:40 | 49.74063 | 2.26027 | 33915 ft | 449 kts | 44° |
| 2026-05-06 11:41 | 49.78552 | 2.32747 | 33916 ft | 449 kts | 44° |
| 2026-05-06 11:41 | 49.83029 | 2.39478 | 33918 ft | 449 kts | 44° |
| 2026-05-06 11:42 | 49.87502 | 2.46226 | 33916 ft | 449 kts | 44° |
| 2026-05-06 11:42 | 49.91968 | 2.52999 | 33914 ft | 449 kts | 44° |
| 2026-05-06 11:43 | 49.96430 | 2.59784 | 33913 ft | 449 kts | 44° |
| 2026-05-06 11:43 | 50.00895 | 2.66564 | 33913 ft | 449 kts | 44° |
| 2026-05-06 11:44 | 50.07594 | 2.76769 | 33912 ft | 449 kts | 44° |
| 2026-05-06 11:44 | 50.12058 | 2.83591 | 33908 ft | 450 kts | 44° |
| 2026-05-06 11:45 | 50.16520 | 2.90435 | 33899 ft | 450 kts | 44° |
| 2026-05-06 11:45 | 50.20978 | 2.97306 | 33889 ft | 451 kts | 45° |
| 2026-05-06 11:46 | 50.25430 | 3.04196 | 33887 ft | 451 kts | 45° |
| 2026-05-06 11:46 | 50.29888 | 3.11104 | 33893 ft | 451 kts | 45° |
| 2026-05-06 11:47 | 50.34342 | 3.18022 | 33348 ft | 450 kts | 45° |
| 2026-05-06 11:47 | 50.36568 | 3.21491 | 32495 ft | 450 kts | 45° |
| 2026-05-06 11:47 | 50.38784 | 3.24953 | 30841 ft | 454 kts | 45° |
| 2026-05-06 11:48 | 50.41068 | 3.28520 | 29255 ft | 472 kts | 45° |
| 2026-05-06 11:48 | 50.43396 | 3.32154 | 28303 ft | 471 kts | 45° |
| 2026-05-06 11:48 | 50.45731 | 3.35797 | 27157 ft | 475 kts | 45° |
| 2026-05-06 11:48 | 50.48031 | 3.39387 | 26388 ft | 469 kts | 45° |
| 2026-05-06 11:49 | 50.50329 | 3.42984 | 25602 ft | 464 kts | 45° |
| 2026-05-06 11:49 | 50.52597 | 3.46547 | 24833 ft | 458 kts | 45° |
| 2026-05-06 11:49 | 50.54911 | 3.49941 | 24081 ft | 452 kts | 39° |
| 2026-05-06 11:49 | 50.57432 | 3.52852 | 22968 ft | 445 kts | 35° |
| 2026-05-06 11:50 | 50.59939 | 3.55616 | 21795 ft | 436 kts | 35° |
| 2026-05-06 11:50 | 50.62409 | 3.58316 | 20635 ft | 427 kts | 34° |
| 2026-05-06 11:50 | 50.64826 | 3.60956 | 19528 ft | 419 kts | 34° |
| 2026-05-06 11:50 | 50.67193 | 3.63550 | 18409 ft | 410 kts | 34° |
| 2026-05-06 11:51 | 50.69509 | 3.66097 | 17326 ft | 402 kts | 34° |
| 2026-05-06 11:51 | 50.71781 | 3.68603 | 16342 ft | 394 kts | 34° |
| 2026-05-06 11:51 | 50.74018 | 3.71073 | 15795 ft | 390 kts | 34° |
| 2026-05-06 11:51 | 50.76233 | 3.73523 | 15252 ft | 386 kts | 34° |
| 2026-05-06 11:52 | 50.78422 | 3.75955 | 14709 ft | 383 kts | 35° |
| 2026-05-06 11:52 | 50.80588 | 3.78369 | 14140 ft | 380 kts | 35° |
| 2026-05-06 11:52 | 50.82743 | 3.80775 | 13562 ft | 377 kts | 35° |
| 2026-05-06 11:52 | 50.84881 | 3.83164 | 12983 ft | 375 kts | 35° |
| 2026-05-06 11:53 | 50.86920 | 3.85709 | 12371 ft | 372 kts | 43° |
| 2026-05-06 11:53 | 50.88613 | 3.88795 | 11761 ft | 371 kts | 54° |
| 2026-05-06 11:53 | 50.89983 | 3.92253 | 11114 ft | 369 kts | 58° |
| 2026-05-06 11:53 | 50.91196 | 3.95744 | 10689 ft | 362 kts | 66° |
| 2026-05-06 11:54 | 50.91900 | 3.99464 | 10561 ft | 345 kts | 79° |
| 2026-05-06 11:54 | 50.92053 | 4.03184 | 10437 ft | 332 kts | 92° |
| 2026-05-06 11:54 | 50.91717 | 4.06726 | 10308 ft | 319 kts | 101° |
| 2026-05-06 11:54 | 50.91035 | 4.09990 | 10180 ft | 308 kts | 117° |
| 2026-05-06 11:55 | 50.89803 | 4.12682 | 10039 ft | 299 kts | 135° |
| 2026-05-06 11:55 | 50.88156 | 4.14608 | 9872 ft | 292 kts | 152° |
| 2026-05-06 11:55 | 50.86909 | 4.15409 | 9815 ft | 293 kts | 163° |
| 2026-05-06 11:55 | 50.84915 | 4.16243 | 9307 ft | 298 kts | 165° |
| 2026-05-06 11:56 | 50.82923 | 4.17027 | 8985 ft | 294 kts | 165° |
| 2026-05-06 11:56 | 50.80284 | 4.18048 | 8218 ft | 290 kts | 165° |
| 2026-05-06 11:56 | 50.78988 | 4.18547 | 7767 ft | 289 kts | 165° |
| 2026-05-06 11:56 | 50.77045 | 4.19298 | 7125 ft | 286 kts | 165° |
| 2026-05-06 11:57 | 50.75110 | 4.20051 | 6669 ft | 286 kts | 165° |
| 2026-05-06 11:57 | 50.73203 | 4.20793 | 6387 ft | 274 kts | 165° |
| 2026-05-06 11:57 | 50.71426 | 4.21491 | 6197 ft | 253 kts | 162° |
| 2026-05-06 11:57 | 50.69966 | 4.22835 | 5901 ft | 239 kts | 131° |
| 2026-05-06 11:58 | 50.69149 | 4.25074 | 5683 ft | 239 kts | 103° |
| 2026-05-06 11:58 | 50.69153 | 4.27680 | 5264 ft | 238 kts | 74° |
| 2026-05-06 11:58 | 50.69566 | 4.30192 | 4949 ft | 236 kts | 74° |
| 2026-05-06 11:58 | 50.69966 | 4.32693 | 4589 ft | 235 kts | 74° |
| 2026-05-06 11:59 | 50.70367 | 4.35232 | 4117 ft | 240 kts | 74° |
| 2026-05-06 11:59 | 50.70762 | 4.37756 | 3905 ft | 233 kts | 74° |
| 2026-05-06 11:59 | 50.71201 | 4.40148 | 3780 ft | 220 kts | 62° |
| 2026-05-06 11:59 | 50.72120 | 4.41992 | 3553 ft | 215 kts | 36° |
| 2026-05-06 12:00 | 50.73460 | 4.42965 | 3253 ft | 213 kts | 13° |
| 2026-05-06 12:00 | 50.74891 | 4.43537 | 2974 ft | 212 kts | 14° |
| 2026-05-06 12:00 | 50.76321 | 4.44112 | 2686 ft | 212 kts | 15° |
| 2026-05-06 12:00 | 50.77728 | 4.44681 | 2405 ft | 208 kts | 16° |
| 2026-05-06 12:01 | 50.79108 | 4.45240 | 2133 ft | 202 kts | 15° |
| 2026-05-06 12:01 | 50.80476 | 4.45797 | 1867 ft | 200 kts | 14° |
| 2026-05-06 12:01 | 50.81790 | 4.46329 | 1625 ft | 192 kts | 13° |
| 2026-05-06 12:01 | 50.83029 | 4.46835 | 1372 ft | 177 kts | 13° |
| 2026-05-06 12:02 | 50.84160 | 4.47297 | 1157 ft | 158 kts | 13° |
| 2026-05-06 12:02 | 50.85168 | 4.47705 | 936 ft | 143 kts | 13° |
| 2026-05-06 12:02 | 50.86106 | 4.48089 | 746 ft | 136 kts | 13° |
| 2026-05-06 12:02 | 50.87022 | 4.48461 | 567 ft | 135 kts | 14° |
| 2026-05-06 12:03 | 50.87929 | 4.48830 | 385 ft | 134 kts | 13° |
| 2026-05-06 12:03 | 50.88833 | 4.49204 | 179 ft | 134 kts | 14° |
| 2026-05-06 12:03 | 50.89650 | 4.49530 | 142 ft | 93 kts | 14° |
| 2026-05-06 12:03 | 50.90048 | 4.49689 | 134 ft | 26 kts | 14° |
| 2026-05-06 12:04 | 50.90223 | 4.49702 | 136 ft | 26 kts | 350° |
| 2026-05-06 12:04 | 50.90375 | 4.49636 | 136 ft | 18 kts | 338° |
| 2026-05-06 12:04 | 50.90450 | 4.49492 | 133 ft | 18 kts | 263° |
| 2026-05-06 12:04 | 50.90420 | 4.49316 | 135 ft | 14 kts | 293° |
| 2026-05-06 12:05 | 50.90509 | 4.49237 | 133 ft | 16 kts | 336° |
| 2026-05-06 12:05 | 50.90609 | 4.49164 | 125 ft | 15 kts | 335° |
| 2026-05-06 12:05 | 50.90635 | 4.49036 | 126 ft | 13 kts | 247° |
| 2026-05-06 12:05 | 50.90600 | 4.48917 | 129 ft | 11 kts | 245° |
| 2026-05-06 12:06 | 50.90570 | 4.48814 | 126 ft | 10 kts | 245° |
| 2026-05-06 12:06 | 50.90545 | 4.48730 | 132 ft | 7 kts | 246° |
| 2026-05-06 12:06 | 50.90509 | 4.48597 | 135 ft | 18 kts | 246° |
| 2026-05-06 12:06 | 50.90456 | 4.48411 | 137 ft | 19 kts | 245° |
| 2026-05-06 12:07 | 50.90402 | 4.48228 | 140 ft | 18 kts | 245° |
| 2026-05-06 12:07 | 50.90347 | 4.48036 | 140 ft | 20 kts | 245° |
| 2026-05-06 12:07 | 50.90287 | 4.47831 | 139 ft | 22 kts | 245° |
| 2026-05-06 12:07 | 50.90239 | 4.47718 | 139 ft | 9 kts | 185° |
| 2026-05-06 12:08 | 50.90193 | 4.47745 | 140 ft | 6 kts | 156° |
| 2026-05-06 12:08 | 50.90176 | 4.47757 | 140 ft | 0 kts | 156° |